createdAt,value
2023-05-06T00:02:26.193Z,16.80
2023-05-06T00:04:54.580Z,14.57
2023-05-06T00:07:22.883Z,14.40
2023-05-06T00:09:52.692Z,15.30
2023-05-06T00:12:20.896Z,13.33
2023-05-06T00:14:49.268Z,13.37
2023-05-06T00:17:17.643Z,14.73
2023-05-06T00:19:45.787Z,15.90
2023-05-06T00:22:13.997Z,14.60
2023-05-06T00:24:42.229Z,14.23
2023-05-06T00:27:12.006Z,15.00
2023-05-06T00:29:40.295Z,15.60
2023-05-06T00:32:08.621Z,15.80
2023-05-06T00:34:37.445Z,16.50
2023-05-06T00:37:05.690Z,17.30
2023-05-06T00:39:34.519Z,17.33
2023-05-06T00:42:03.374Z,16.53
2023-05-06T00:44:33.114Z,19.43
2023-05-06T00:47:02.569Z,16.47
2023-05-06T00:49:31.283Z,18.33
2023-05-06T00:52:01.177Z,17.97
2023-05-06T00:54:29.915Z,18.23
2023-05-06T00:56:58.253Z,16.80
2023-05-06T00:59:26.806Z,16.00
2023-05-06T01:01:56.489Z,16.30
2023-05-06T01:04:25.094Z,19.03
2023-05-06T01:07:05.413Z,19.10
2023-05-06T01:09:40.268Z,17.53
2023-05-06T01:12:13.249Z,16.47
2023-05-06T01:14:48.110Z,18.47
2023-05-06T01:17:20.092Z,16.57
2023-05-06T01:19:50.147Z,17.67
2023-05-06T01:22:19.393Z,16.60
2023-05-06T01:24:48.980Z,17.00
2023-05-06T01:27:18.242Z,15.77
2023-05-06T01:29:48.559Z,17.50
2023-05-06T01:32:29.871Z,18.07
2023-05-06T01:35:07.291Z,18.53
2023-05-06T01:37:43.172Z,16.50
2023-05-06T01:40:15.503Z,15.37
2023-05-06T01:42:47.481Z,16.70
2023-05-06T01:45:17.378Z,17.27
2023-05-06T01:47:46.838Z,17.70
2023-05-06T01:50:16.018Z,16.83
2023-05-06T01:52:44.485Z,15.53
2023-05-06T01:55:14.531Z,17.27
2023-05-06T01:57:43.006Z,18.17
2023-05-06T02:00:12.039Z,17.10
2023-05-06T02:02:40.423Z,18.20
2023-05-06T02:05:09.883Z,16.73
2023-05-06T02:07:38.361Z,16.53
2023-05-06T02:10:08.618Z,15.10
2023-05-06T02:12:38.182Z,14.33
2023-05-06T02:15:07.821Z,14.03
2023-05-06T02:17:37.360Z,16.10
2023-05-06T02:20:07.150Z,16.43
2023-05-06T02:22:35.489Z,15.43
2023-05-06T02:25:03.896Z,16.33
2023-05-06T02:27:32.175Z,16.37
2023-05-06T02:30:01.868Z,15.77
2023-05-06T02:32:30.289Z,17.23
2023-05-06T02:34:58.931Z,16.50
2023-05-06T02:37:27.135Z,17.70
2023-05-06T02:39:55.401Z,19.27
2023-05-06T02:42:23.679Z,19.50
2023-05-06T02:44:51.968Z,19.50
2023-05-06T02:47:21.629Z,20.73
2023-05-06T02:49:49.890Z,19.17
2023-05-06T02:52:18.020Z,19.87
2023-05-06T02:54:46.444Z,19.53
2023-05-06T02:57:14.919Z,20.23
2023-05-06T02:59:43.201Z,21.97
2023-05-06T03:02:11.595Z,17.47
2023-05-06T03:04:41.134Z,16.90
2023-05-06T03:07:09.361Z,15.30
2023-05-06T03:09:37.916Z,16.90
2023-05-06T03:12:06.834Z,15.73
2023-05-06T03:14:34.999Z,15.10
2023-05-06T03:17:03.733Z,15.47
2023-05-06T03:19:31.904Z,13.40
2023-05-06T03:22:01.721Z,13.73
2023-05-06T03:24:30.309Z,13.47
2023-05-06T03:26:59.611Z,13.30
2023-05-06T03:29:27.843Z,12.90
2023-05-06T03:31:57.195Z,12.07
2023-05-06T03:34:25.890Z,11.60
2023-05-06T03:36:54.057Z,11.70
2023-05-06T03:39:23.630Z,14.03
2023-05-06T03:41:52.364Z,12.50
2023-05-06T03:44:20.572Z,13.43
2023-05-06T03:46:49.270Z,14.13
2023-05-06T03:49:17.731Z,13.73
2023-05-06T03:51:45.938Z,12.97
2023-05-06T03:54:14.195Z,13.17
2023-05-06T03:56:44.211Z,12.77
2023-05-06T03:59:12.478Z,13.77
2023-05-06T04:01:40.900Z,12.40
2023-05-06T04:04:09.470Z,13.97
2023-05-06T04:06:38.386Z,15.10
2023-05-06T04:09:06.854Z,11.80
2023-05-06T04:11:37.135Z,15.40
2023-05-06T04:14:06.790Z,12.67
2023-05-06T04:16:35.184Z,13.93
2023-05-06T04:19:06.357Z,12.67
2023-05-06T04:21:35.078Z,13.20
2023-05-06T04:24:03.789Z,12.83
2023-05-06T04:26:33.029Z,17.13
2023-05-06T04:29:01.634Z,19.20
2023-05-06T04:31:32.581Z,15.13
2023-05-06T04:34:00.860Z,14.97
2023-05-06T04:36:29.450Z,14.30
2023-05-06T04:38:58.410Z,14.20
2023-05-06T04:41:26.817Z,16.10
2023-05-06T04:43:56.142Z,14.07
2023-05-06T04:46:24.875Z,13.43
2023-05-06T04:48:54.646Z,15.87
2023-05-06T04:51:22.871Z,16.07
2023-05-06T04:53:52.833Z,13.90
2023-05-06T04:56:21.527Z,13.37
2023-05-06T04:58:49.770Z,13.87
2023-05-06T05:01:20.028Z,13.00
2023-05-06T05:03:48.428Z,13.10
2023-05-06T05:06:18.148Z,14.70
2023-05-06T05:08:46.365Z,14.00
2023-05-06T05:11:14.739Z,12.57
2023-05-06T05:13:42.965Z,13.50
2023-05-06T05:16:11.292Z,12.77
2023-05-06T05:18:39.604Z,12.03
2023-05-06T05:21:07.865Z,12.20
2023-05-06T05:23:37.611Z,12.67
2023-05-06T05:26:05.979Z,13.50
2023-05-06T05:28:34.526Z,13.00
2023-05-06T05:31:04.354Z,16.93
2023-05-06T05:33:33.262Z,14.90
2023-05-06T05:36:02.365Z,14.30
2023-05-06T05:38:31.174Z,14.80
2023-05-06T05:41:01.376Z,14.77
2023-05-06T05:43:31.456Z,14.70
2023-05-06T05:45:59.792Z,14.30
2023-05-06T05:48:28.072Z,14.03
2023-05-06T05:50:57.370Z,15.30
2023-05-06T05:53:25.902Z,14.40
2023-05-06T05:55:54.649Z,12.70
2023-05-06T05:58:24.622Z,13.73
2023-05-06T06:00:53.150Z,14.77
2023-05-06T06:03:21.606Z,14.80
2023-05-06T06:05:53.127Z,13.47
2023-05-06T06:08:21.708Z,12.23
2023-05-06T06:10:49.929Z,13.20
2023-05-06T06:13:18.410Z,12.67
2023-05-06T06:15:48.102Z,14.37
2023-05-06T06:18:16.451Z,13.83
2023-05-06T06:20:44.992Z,12.83
2023-05-06T06:23:13.431Z,14.03
2023-05-06T06:25:41.759Z,14.33
2023-05-06T06:28:10.219Z,14.30
2023-05-06T06:30:38.531Z,14.07
2023-05-06T06:33:08.728Z,14.10
2023-05-06T06:35:37.341Z,14.33
2023-05-06T06:38:05.907Z,17.03
2023-05-06T06:40:34.175Z,13.63
2023-05-06T06:43:02.532Z,15.07
2023-05-06T06:45:30.804Z,14.83
2023-05-06T06:47:59.345Z,15.07
2023-05-06T06:50:28.970Z,13.07
2023-05-06T06:52:57.238Z,14.63
2023-05-06T06:55:25.760Z,12.27
2023-05-06T06:57:53.887Z,13.87
2023-05-06T07:00:22.162Z,12.70
2023-05-06T07:02:50.553Z,11.37
2023-05-06T07:05:19.763Z,11.70
2023-05-06T07:07:49.933Z,10.07
2023-05-06T07:10:18.643Z,11.53
2023-05-06T07:12:46.961Z,12.30
2023-05-06T07:15:15.889Z,11.83
2023-05-06T07:17:44.840Z,10.70
2023-05-06T07:20:14.419Z,10.30
2023-05-06T07:22:43.568Z,10.87
2023-05-06T07:25:13.641Z,10.20
2023-05-06T07:27:42.101Z,10.23
2023-05-06T07:30:11.199Z,9.07
2023-05-06T07:32:40.998Z,10.23
2023-05-06T07:35:10.803Z,9.90
2023-05-06T07:37:39.243Z,9.83
2023-05-06T07:40:09.074Z,8.47
2023-05-06T07:42:39.621Z,10.13
2023-05-06T07:45:10.275Z,8.40
2023-05-06T07:47:38.838Z,7.97
2023-05-06T07:50:08.339Z,8.07
2023-05-06T07:52:36.762Z,7.63
2023-05-06T07:55:05.827Z,7.17
2023-05-06T07:57:34.124Z,6.47
2023-05-06T08:00:06.093Z,6.47
2023-05-06T08:02:34.505Z,5.87
2023-05-06T08:05:02.835Z,5.13
2023-05-06T08:07:31.093Z,4.53
2023-05-06T08:09:59.251Z,5.63
2023-05-06T08:12:27.457Z,5.47
2023-05-06T08:14:55.857Z,4.70
2023-05-06T08:17:25.443Z,4.07
2023-05-06T08:19:53.659Z,3.13
2023-05-06T08:22:21.941Z,3.67
2023-05-06T08:24:50.485Z,3.17
2023-05-06T08:27:18.740Z,3.43
2023-05-06T08:29:47.284Z,3.20
2023-05-06T08:32:15.569Z,2.70
2023-05-06T08:34:45.439Z,2.90
2023-05-06T08:37:14.162Z,2.50
2023-05-06T08:39:42.416Z,3.20
2023-05-06T08:42:12.387Z,3.20
2023-05-06T08:44:40.845Z,3.10
2023-05-06T08:47:09.401Z,2.77
2023-05-06T08:49:37.942Z,3.20
2023-05-06T08:52:07.773Z,2.97
2023-05-06T08:54:37.049Z,2.53
2023-05-06T08:57:07.080Z,2.60
2023-05-06T08:59:36.666Z,2.70
2023-05-06T09:02:05.854Z,2.60
2023-05-06T09:04:34.230Z,2.77
2023-05-06T09:07:02.358Z,2.50
2023-05-06T09:09:31.945Z,2.83
2023-05-06T09:12:02.750Z,2.83
2023-05-06T09:14:31.057Z,2.77
2023-05-06T09:16:59.602Z,3.10
2023-05-06T09:19:27.955Z,3.00
2023-05-06T09:21:56.820Z,2.97
2023-05-06T09:24:25.418Z,3.17
2023-05-06T09:26:55.499Z,2.80
2023-05-06T09:29:23.780Z,1.97
2023-05-06T09:31:54.691Z,2.50
2023-05-06T09:34:23.254Z,2.10
2023-05-06T09:36:57.122Z,2.57
2023-05-06T09:39:27.328Z,2.37
2023-05-06T09:41:57.618Z,1.87
2023-05-06T09:44:27.371Z,1.87
2023-05-06T09:46:55.810Z,2.13
2023-05-06T09:49:24.270Z,1.80
2023-05-06T09:51:53.928Z,2.07
2023-05-06T09:54:23.300Z,1.83
2023-05-06T09:56:52.941Z,1.40
2023-05-06T09:59:23.967Z,1.57
2023-05-06T10:01:53.539Z,2.10
2023-05-06T10:04:26.300Z,1.30
2023-05-06T10:06:56.654Z,1.87
2023-05-06T10:09:25.862Z,2.30
2023-05-06T10:11:55.125Z,2.20
2023-05-06T10:14:24.993Z,1.30
2023-05-06T10:16:54.942Z,2.17
2023-05-06T10:19:26.702Z,1.50
2023-05-06T10:22:00.485Z,1.67
2023-05-06T10:24:34.561Z,1.87
2023-05-06T10:27:06.533Z,1.70
2023-05-06T10:29:38.231Z,1.57
2023-05-06T10:32:09.294Z,1.63
2023-05-06T10:34:43.462Z,1.70
2023-05-06T10:37:13.213Z,1.60
2023-05-06T10:39:42.817Z,1.27
2023-05-06T10:42:11.775Z,1.43
2023-05-06T10:45:01.014Z,1.20
2023-05-06T10:47:29.306Z,1.30
2023-05-06T10:50:20.766Z,1.10
2023-05-06T10:52:52.135Z,1.03
2023-05-06T10:55:28.427Z,1.07
2023-05-06T10:57:57.694Z,1.30
2023-05-06T11:00:27.514Z,1.57
2023-05-06T11:03:01.824Z,1.57
2023-05-06T11:05:30.361Z,1.23
2023-05-06T11:08:10.996Z,1.37
2023-05-06T11:10:39.312Z,2.57
2023-05-06T11:13:21.464Z,1.20
2023-05-06T11:15:52.328Z,1.80
2023-05-06T11:18:43.208Z,1.33
2023-05-06T11:21:37.755Z,2.00
2023-05-06T11:24:13.961Z,1.37
2023-05-06T11:26:43.152Z,1.20
2023-05-06T11:29:11.631Z,1.20
2023-05-06T11:31:43.011Z,1.63
2023-05-06T11:34:13.450Z,0.80
2023-05-06T11:36:58.735Z,1.20
2023-05-06T11:39:30.600Z,1.27
2023-05-06T11:42:00.901Z,1.00
2023-05-06T11:44:30.618Z,1.40
2023-05-06T11:47:01.905Z,1.50
2023-05-06T11:49:30.162Z,1.30
2023-05-06T11:51:58.637Z,1.73
2023-05-06T11:54:28.274Z,1.60
2023-05-06T11:56:57.916Z,1.10
2023-05-06T11:59:31.483Z,1.80
2023-05-06T12:02:02.815Z,1.47
2023-05-06T12:04:40.203Z,1.23
2023-05-06T12:07:09.562Z,1.40
2023-05-06T12:09:39.107Z,1.30
2023-05-06T12:12:09.417Z,0.83
2023-05-06T12:14:38.136Z,1.30
2023-05-06T12:17:08.214Z,0.93
2023-05-06T12:19:36.530Z,1.00
2023-05-06T12:22:20.489Z,1.10
2023-05-06T12:24:49.571Z,1.20
2023-05-06T12:27:33.045Z,1.30
2023-05-06T12:30:02.613Z,1.20
2023-05-06T12:32:32.876Z,1.00
2023-05-06T12:35:05.696Z,1.00
2023-05-06T12:37:34.345Z,1.20
2023-05-06T12:40:02.633Z,1.00
2023-05-06T12:42:30.893Z,1.20
2023-05-06T12:44:59.415Z,1.20
2023-05-06T12:47:27.744Z,0.80
2023-05-06T12:49:59.512Z,1.10
2023-05-06T12:52:29.910Z,0.90
2023-05-06T12:55:01.360Z,0.80
2023-05-06T12:57:29.656Z,0.80
2023-05-06T12:59:59.861Z,0.80
2023-05-06T13:02:29.078Z,1.10
2023-05-06T13:04:58.660Z,1.23
2023-05-06T13:07:27.020Z,0.80
2023-05-06T13:09:55.530Z,1.20
2023-05-06T13:12:23.847Z,1.07
2023-05-06T13:14:52.105Z,1.00
2023-05-06T13:17:20.349Z,1.17
2023-05-06T13:19:48.710Z,0.70
2023-05-06T13:22:18.747Z,0.80
2023-05-06T13:24:46.965Z,0.73
2023-05-06T13:27:15.472Z,1.63
2023-05-06T13:29:43.954Z,1.40
2023-05-06T13:32:12.273Z,1.07
2023-05-06T13:34:40.767Z,0.90
2023-05-06T13:37:08.949Z,1.20
2023-05-06T13:39:38.568Z,0.90
2023-05-06T13:42:08.393Z,1.20
2023-05-06T13:44:36.900Z,1.13
2023-05-06T13:47:05.293Z,1.37
2023-05-06T13:49:33.484Z,1.30
2023-05-06T13:52:01.658Z,1.10
2023-05-06T13:54:29.929Z,1.20
2023-05-06T13:56:59.956Z,1.40
2023-05-06T13:59:28.210Z,1.10
2023-05-06T14:01:57.246Z,1.70
2023-05-06T14:04:25.577Z,1.40
2023-05-06T14:06:53.880Z,2.10
2023-05-06T14:09:22.175Z,1.73
2023-05-06T14:11:50.383Z,1.40
2023-05-06T14:14:20.149Z,1.93
2023-05-06T14:16:48.950Z,1.77
2023-05-06T14:19:17.172Z,2.20
2023-05-06T14:21:45.400Z,2.00
2023-05-06T14:24:13.690Z,2.53
2023-05-06T14:26:42.691Z,2.60
2023-05-06T14:29:10.967Z,2.63
2023-05-06T14:31:40.516Z,2.00
2023-05-06T14:34:09.335Z,1.93
2023-05-06T14:36:37.747Z,2.00
2023-05-06T14:39:06.002Z,1.60
2023-05-06T14:41:34.252Z,2.47
2023-05-06T14:44:02.499Z,1.87
2023-05-06T14:46:30.837Z,1.97
2023-05-06T14:49:02.997Z,2.43
2023-05-06T14:51:32.478Z,2.40
2023-05-06T14:54:00.790Z,2.30
2023-05-06T14:56:29.074Z,1.67
2023-05-06T14:58:58.056Z,1.83
2023-05-06T15:01:26.367Z,1.70
2023-05-06T15:03:54.615Z,1.70
2023-05-06T15:06:25.038Z,2.43
2023-05-06T15:08:53.403Z,1.90
2023-05-06T15:11:21.685Z,1.90
2023-05-06T15:13:49.935Z,3.00
2023-05-06T15:16:21.186Z,2.50
2023-05-06T15:18:49.503Z,1.77
2023-05-06T15:21:17.927Z,1.97
2023-05-06T15:23:48.933Z,2.13
2023-05-06T15:26:17.277Z,2.17
2023-05-06T15:28:45.474Z,2.47
2023-05-06T15:31:13.827Z,2.90
2023-05-06T15:33:42.024Z,2.93
2023-05-06T15:36:10.685Z,1.80
2023-05-06T15:39:00.448Z,3.07
2023-05-06T15:41:30.480Z,2.50
2023-05-06T15:44:00.420Z,3.23
2023-05-06T15:46:29.521Z,2.70
2023-05-06T15:49:21.013Z,3.13
2023-05-06T15:51:47.136Z,2.40
2023-05-06T15:54:19.024Z,2.57
2023-05-06T15:56:47.753Z,2.07
2023-05-06T15:59:16.119Z,2.97
2023-05-06T16:04:17.433Z,2.40
2023-05-06T16:06:45.904Z,2.87
2023-05-06T16:09:14.366Z,2.37
2023-05-06T16:11:44.109Z,2.90
2023-05-06T16:14:12.610Z,2.37
2023-05-06T16:16:41.056Z,2.17
2023-05-06T16:19:09.982Z,2.83
2023-05-06T16:21:38.255Z,2.47
2023-05-06T16:24:06.937Z,2.00
2023-05-06T16:26:35.924Z,2.80
2023-05-06T16:29:05.522Z,2.30
2023-05-06T16:31:33.867Z,2.30
2023-05-06T16:34:02.437Z,2.23
2023-05-06T16:36:31.436Z,2.00
2023-05-06T16:38:59.801Z,1.80
2023-05-06T16:41:28.030Z,1.80
2023-05-06T16:43:56.533Z,1.70
2023-05-06T16:46:28.690Z,1.57
2023-05-06T16:48:57.041Z,1.90
2023-05-06T16:51:26.384Z,1.73
2023-05-06T16:53:57.556Z,1.63
2023-05-06T16:56:32.866Z,1.60
2023-05-06T16:59:09.099Z,2.13
2023-05-06T17:01:38.812Z,2.27
2023-05-06T17:04:07.060Z,1.57
2023-05-06T17:06:35.589Z,1.90
2023-05-06T17:09:04.096Z,1.97
2023-05-06T17:11:32.418Z,2.03
2023-05-06T17:14:00.765Z,2.53
2023-05-06T17:16:29.032Z,2.23
2023-05-06T17:18:58.736Z,2.37
2023-05-06T17:21:27.803Z,2.90
2023-05-06T17:23:56.372Z,3.60
2023-05-06T17:26:24.728Z,2.70
2023-05-06T17:28:52.944Z,2.50
2023-05-06T17:31:21.406Z,2.83
2023-05-06T17:33:49.790Z,3.20
2023-05-06T17:36:20.598Z,3.10
2023-05-06T17:38:49.076Z,2.90
2023-05-06T17:41:17.263Z,2.73
2023-05-06T17:43:47.331Z,3.00
2023-05-06T17:46:17.461Z,2.53
2023-05-06T17:48:47.594Z,3.20
2023-05-06T17:51:16.112Z,3.37
2023-05-06T17:53:45.683Z,3.87
2023-05-06T17:56:14.489Z,3.60
2023-05-06T17:58:42.970Z,3.37
2023-05-06T18:01:11.556Z,3.77
2023-05-06T18:03:40.365Z,5.93
2023-05-06T18:06:08.766Z,4.97
2023-05-06T18:08:37.268Z,4.00
2023-05-06T18:11:06.908Z,3.87
2023-05-06T18:13:37.454Z,4.27
2023-05-06T18:16:06.315Z,5.10
2023-05-06T18:18:34.964Z,4.00
2023-05-06T18:21:03.316Z,4.50
2023-05-06T18:23:31.608Z,4.07
2023-05-06T18:25:59.849Z,3.90
2023-05-06T18:28:29.478Z,2.50
2023-05-06T18:30:58.161Z,2.53
2023-05-06T18:33:26.602Z,2.47
2023-05-06T18:35:55.199Z,3.60
2023-05-06T18:38:26.318Z,3.50
2023-05-06T18:40:54.926Z,3.60
2023-05-06T18:43:23.489Z,3.43
2023-05-06T18:45:54.690Z,3.10
2023-05-06T18:48:23.148Z,2.80
2023-05-06T18:50:53.782Z,2.73
2023-05-06T18:53:22.333Z,3.13
2023-05-06T18:55:52.060Z,3.17
2023-05-06T18:58:20.324Z,3.07
2023-05-06T19:00:48.635Z,4.33
2023-05-06T19:03:18.360Z,4.27
2023-05-06T19:05:46.697Z,3.70
2023-05-06T19:08:16.080Z,4.10
2023-05-06T19:10:44.506Z,3.67
2023-05-06T19:13:12.866Z,3.70
2023-05-06T19:15:41.304Z,3.50
2023-05-06T19:18:10.066Z,2.90
2023-05-06T19:20:40.038Z,3.77
2023-05-06T19:23:08.215Z,4.47
2023-05-06T19:25:38.045Z,5.40
2023-05-06T19:28:06.917Z,5.67
2023-05-06T19:30:36.560Z,4.20
2023-05-06T19:33:05.510Z,5.00
2023-05-06T19:35:33.842Z,4.63
2023-05-06T19:38:06.007Z,4.40
2023-05-06T19:40:35.285Z,4.60
2023-05-06T19:43:04.428Z,4.27
2023-05-06T19:45:34.039Z,4.60
2023-05-06T19:48:08.470Z,4.27
2023-05-06T19:50:37.154Z,4.37
2023-05-06T19:53:06.857Z,4.27
2023-05-06T19:55:36.698Z,5.13
2023-05-06T19:58:05.288Z,4.30
2023-05-06T20:00:33.980Z,4.27
2023-05-06T20:03:03.041Z,4.33
2023-05-06T20:05:32.154Z,3.67
2023-05-06T20:08:00.765Z,4.67
2023-05-06T20:10:30.969Z,4.47
2023-05-06T20:12:59.182Z,4.43
2023-05-06T20:15:28.175Z,3.57
2023-05-06T20:17:56.649Z,3.83
2023-05-06T20:20:33.976Z,3.70
2023-05-06T20:23:02.954Z,3.60
2023-05-06T20:25:32.762Z,4.07
2023-05-06T20:28:01.882Z,3.40
2023-05-06T20:30:30.294Z,3.60
2023-05-06T20:32:58.651Z,3.93
2023-05-06T20:35:27.502Z,4.50
2023-05-06T20:37:56.090Z,6.10
2023-05-06T20:40:24.577Z,5.60
2023-05-06T20:42:54.209Z,5.57
2023-05-06T20:45:22.904Z,5.60
2023-05-06T20:47:51.272Z,4.53
2023-05-06T20:50:19.760Z,5.00
2023-05-06T20:52:49.144Z,4.30
2023-05-06T20:55:20.373Z,4.13
2023-05-06T20:57:48.693Z,4.43
2023-05-06T21:00:19.448Z,3.83
2023-05-06T21:02:47.935Z,4.83
2023-05-06T21:05:16.411Z,4.93
2023-05-06T21:07:44.762Z,3.90
2023-05-06T21:10:13.902Z,5.17
2023-05-06T21:12:48.204Z,4.40
2023-05-06T21:15:18.034Z,5.10
2023-05-06T21:17:46.940Z,4.07
2023-05-06T21:20:15.399Z,6.33
2023-05-06T21:22:43.654Z,5.60
2023-05-06T21:25:13.113Z,5.97
2023-05-06T21:27:41.848Z,4.97
2023-05-06T21:30:11.109Z,4.60
2023-05-06T21:32:41.109Z,4.63
2023-05-06T21:35:10.179Z,4.67
2023-05-06T21:37:38.886Z,5.10
2023-05-06T21:40:08.118Z,4.80
2023-05-06T21:42:36.379Z,4.80
2023-05-06T21:45:05.367Z,4.70
2023-05-06T21:47:33.784Z,5.20
2023-05-06T21:50:03.602Z,4.40
2023-05-06T21:52:32.149Z,4.50
2023-05-06T21:55:00.438Z,4.90
2023-05-06T21:57:28.624Z,4.53
2023-05-06T21:59:56.980Z,4.80
2023-05-06T22:02:25.395Z,5.00
2023-05-06T22:04:53.678Z,4.57
2023-05-06T22:07:23.703Z,4.87
2023-05-06T22:09:51.872Z,5.23
2023-05-06T22:12:20.305Z,5.50
2023-05-06T22:14:48.860Z,5.00
2023-05-06T22:17:17.414Z,5.17
2023-05-06T22:19:46.479Z,4.90
2023-05-06T22:22:15.247Z,4.70
2023-05-06T22:24:44.944Z,4.67
2023-05-06T22:27:13.298Z,4.50
2023-05-06T22:29:41.591Z,4.07
2023-05-06T22:32:09.872Z,3.97
2023-05-06T22:34:38.134Z,4.27
2023-05-06T22:37:10.598Z,4.57
2023-05-06T22:39:39.187Z,4.47
2023-05-06T22:42:09.401Z,4.57
2023-05-06T22:44:37.655Z,4.67
2023-05-06T22:47:06.296Z,4.73
2023-05-06T22:49:36.361Z,4.70
2023-05-06T22:52:05.012Z,5.00
2023-05-06T22:54:33.316Z,5.17
2023-05-06T22:57:02.000Z,4.43
2023-05-06T22:59:31.880Z,4.90
2023-05-06T23:02:00.137Z,5.10
2023-05-06T23:04:28.738Z,5.30
2023-05-06T23:06:57.352Z,4.80
2023-05-06T23:09:25.907Z,4.80
2023-05-06T23:11:54.156Z,4.80
2023-05-06T23:14:22.734Z,5.20
2023-05-06T23:16:52.671Z,5.00
2023-05-06T23:19:21.843Z,5.57
2023-05-06T23:21:50.446Z,5.00
2023-05-06T23:24:18.758Z,4.60
2023-05-06T23:26:46.980Z,4.50
2023-05-06T23:29:15.377Z,4.70
2023-05-06T23:31:43.676Z,4.60
2023-05-06T23:34:13.467Z,4.60
2023-05-06T23:36:41.740Z,4.77
2023-05-06T23:39:12.066Z,4.40
2023-05-06T23:41:40.516Z,4.60
2023-05-06T23:44:08.765Z,4.37
2023-05-06T23:46:37.058Z,4.57
2023-05-06T23:49:05.967Z,4.30
2023-05-06T23:51:35.777Z,4.37
2023-05-06T23:54:04.063Z,4.67
2023-05-06T23:56:32.714Z,4.20
2023-05-06T23:59:00.899Z,4.40
